Time;durP1;ratioP1;P1;durP2;ratioP2;P2;SDS_P1;SDS_P2;PMS_P1;PMS_P2;Temp;Humidity;BMP_temperature;BMP_pressure;BME280_temperature;BME280_humidity;BME280_pressure;Samples;Min_cycle;Max_cycle;Signal;HPM_P1;HPM_P2
2022/07/09 00:02:08;;;;;;;;;;;;;;;19.28;52.67;100900.72;5311534;32;34713;-79
2022/07/09 00:05:12;;;;;;;;;;;;;;;19.39;52.67;100897.34;5357066;32;34103;-78
2022/07/09 00:08:18;;;;;;;;;;;;;;;19.46;52.16;100907.47;5326526;32;34532;-81
2022/07/09 00:11:20;;;;;;;;;;;;;;;19.57;51.86;100909.38;5347883;32;44576;-80
2022/07/09 00:14:22;;;;;;;;;;;;;;;19.38;52.09;100903.59;5335097;32;34346;-77
2022/07/09 00:17:25;;;;;;;;;;;;;;;19.18;52.55;100905.78;5326190;32;34931;-78
2022/07/09 00:20:27;;;;;;;;;;;;;;;19.31;52.18;100905.81;5360242;32;34622;-78
2022/07/09 00:23:29;;;;;;;;;;;;;;;19.33;52.21;100901.28;5341180;32;34708;-79
2022/07/09 00:26:31;;;;;;;;;;;;;;;19.17;52.24;100911.22;5361360;32;35256;-78
2022/07/09 00:29:33;;;;;;;;;;;;;;;19.13;52.49;100901.75;5331454;32;35807;-82
2022/07/09 00:32:35;;;;;;;;;;;;;;;19.44;51.69;100901.37;5355238;32;34506;-79
2022/07/09 00:35:37;;;;;;;;;;;;;;;19.54;51.50;100903.44;5338172;32;35015;-79
2022/07/09 00:38:39;;;;;;;;;;;;;;;19.18;51.95;100900.47;5342242;32;34511;-79
2022/07/09 00:41:41;;;;;;;;;;;;;;;19.31;51.81;100896.97;5350278;32;34264;-78
2022/07/09 00:44:42;;;;;;;;;;;;;;;19.17;51.89;100890.78;5331408;32;34888;-79
2022/07/09 00:47:44;;;;;;;;;;;;;;;19.84;50.23;100890.69;5357471;32;34189;-78
2022/07/09 00:50:46;;;;;;;;;;;;;;;19.46;50.79;100887.97;5342799;32;34619;-79
2022/07/09 00:53:48;;;;;;;;;;;;;;;19.51;50.79;100887.63;5343726;32;44818;-78
2022/07/09 00:56:53;;;;;;;;;;;;;;;19.22;51.36;100874.47;5333535;32;45153;-79
2022/07/09 00:59:56;;;;;;;;;;;;;;;19.20;51.34;100876.41;5332852;32;35051;-79
2022/07/09 01:02:58;;;;;;;;;;;;;;;19.15;51.53;100878.53;5340586;32;35668;-81
2022/07/09 01:06:00;;;;;;;;;;;;;;;19.88;49.58;100875.31;5339898;32;36233;-79
2022/07/09 01:09:02;;;;;;;;;;;;;;;19.42;50.63;100876.63;5359131;32;35196;-80
2022/07/09 01:12:05;;;;;;;;;;;;;;;19.68;49.92;100871.37;5341141;32;34473;-79
2022/07/09 01:15:07;;;;;;;;;;;;;;;19.31;50.18;100873.84;5351297;32;34255;-79
2022/07/09 01:18:12;;;;;;;;;;;;;;;19.74;49.31;100865.59;5334737;32;35105;-78
2022/07/09 01:21:14;;;;;;;;;;;;;;;19.53;49.74;100867.06;5342016;32;34220;-79
2022/07/09 01:24:16;;;;;;;;;;;;;;;19.88;48.76;100867.31;5359253;32;33680;-77
2022/07/09 01:27:19;;;;;;;;;;;;;;;19.29;50.21;100870.44;5330298;32;36964;-78
2022/07/09 01:30:25;;;;;;;;;;;;;;;19.62;49.67;100869.12;5348463;32;35589;-76
2022/07/09 01:33:26;;;;;;;;;;;;;;;19.22;50.48;100866.47;5332434;32;34477;-79
2022/07/09 01:36:28;;;;;;;;;;;;;;;19.00;50.95;100867.09;5338037;32;34820;-80
2022/07/09 01:39:30;;;;;;;;;;;;;;;18.88;51.34;100870.56;5353195;32;36375;-79
2022/07/09 01:42:32;;;;;;;;;;;;;;;18.79;51.82;100866.66;5341458;32;34919;-79
2022/07/09 01:45:34;;;;;;;;;;;;;;;18.88;52.00;100866.09;5359511;32;36011;-79
2022/07/09 01:48:36;;;;;;;;;;;;;;;19.11;51.38;100866.34;5330511;32;34316;-78
2022/07/09 01:51:38;;;;;;;;;;;;;;;18.87;51.63;100859.06;5347588;32;36477;-79
2022/07/09 01:54:40;;;;;;;;;;;;;;;18.70;52.32;100861.97;5331264;32;34736;-77
2022/07/09 01:57:42;;;;;;;;;;;;;;;18.57;52.17;100861.03;5346243;32;35842;-79
2022/07/09 02:00:44;;;;;;;;;;;;;;;18.84;51.67;100869.03;5342049;32;34807;-78
2022/07/09 02:03:45;;;;;;;;;;;;;;;18.27;53.43;100861.19;5321521;32;35191;-78
2022/07/09 02:06:48;;;;;;;;;;;;;;;18.38;53.07;100854.22;5365735;32;34449;-78
2022/07/09 02:09:50;;;;;;;;;;;;;;;18.07;53.98;100857.97;5330550;32;36715;-78
2022/07/09 02:12:52;;;;;;;;;;;;;;;18.21;53.49;100850.91;5346655;32;34968;-77
2022/07/09 02:15:54;;;;;;;;;;;;;;;18.59;52.41;100851.97;5328970;32;34672;-80
2022/07/09 02:18:56;;;;;;;;;;;;;;;18.64;52.63;100860.53;5327419;32;34898;-78
2022/07/09 02:21:58;;;;;;;;;;;;;;;19.01;51.50;100849.28;5342452;32;35701;-82
2022/07/09 02:25:00;;;;;;;;;;;;;;;18.01;54.39;100857.50;5331742;32;35507;-78
2022/07/09 02:28:04;;;;;;;;;;;;;;;18.56;52.65;100854.00;5347775;32;35317;-80
2022/07/09 02:31:06;;;;;;;;;;;;;;;18.66;52.47;100855.97;5341295;32;35522;-80
2022/07/09 02:34:08;;;;;;;;;;;;;;;18.32;53.57;100867.06;5348152;32;33992;-78
2022/07/09 02:37:10;;;;;;;;;;;;;;;18.92;51.91;100875.56;5342827;32;34167;-80
2022/07/09 02:40:14;;;;;;;;;;;;;;;18.77;52.31;100871.25;5335815;32;34259;-80
2022/07/09 02:43:16;;;;;;;;;;;;;;;18.77;51.90;100865.06;5358722;32;35148;-77
2022/07/09 02:46:18;;;;;;;;;;;;;;;18.23;53.52;100867.66;5342368;32;36798;-78
2022/07/09 02:49:23;;;;;;;;;;;;;;;18.43;53.08;100864.56;5345745;32;45263;-78
2022/07/09 02:52:25;;;;;;;;;;;;;;;19.09;51.14;100858.47;5330278;32;37720;-79
2022/07/09 02:55:27;;;;;;;;;;;;;;;18.25;53.29;100861.28;5346617;32;35630;-79
2022/07/09 02:58:30;;;;;;;;;;;;;;;18.55;52.63;100869.12;5342951;32;35051;-77
2022/07/09 03:01:33;;;;;;;;;;;;;;;18.64;52.46;100862.31;5320056;32;38228;-79
2022/07/09 03:04:35;;;;;;;;;;;;;;;18.46;52.64;100871.50;5359595;32;35027;-77
2022/07/09 03:07:37;;;;;;;;;;;;;;;18.58;52.50;100868.06;5331552;32;34813;-79
2022/07/09 03:10:39;;;;;;;;;;;;;;;19.00;51.06;100864.41;5348176;32;34651;-79
2022/07/09 03:13:40;;;;;;;;;;;;;;;18.19;53.54;100867.00;5332471;32;35299;-79
2022/07/09 03:16:43;;;;;;;;;;;;;;;18.13;53.50;100860.25;5341634;32;34232;-80
2022/07/09 03:19:45;;;;;;;;;;;;;;;19.01;51.32;100866.12;5331144;32;35023;-79
2022/07/09 03:22:46;;;;;;;;;;;;;;;19.07;50.84;100872.84;5327064;32;33891;-80
2022/07/09 03:25:48;;;;;;;;;;;;;;;18.84;51.28;100871.69;5346393;32;44718;-79
2022/07/09 03:28:50;;;;;;;;;;;;;;;18.76;51.56;100861.56;5328356;32;35979;-79
2022/07/09 03:31:52;;;;;;;;;;;;;;;19.02;50.56;100872.31;5359139;32;34370;-80
2022/07/09 03:34:54;;;;;;;;;;;;;;;18.98;51.14;100870.78;5342557;32;34446;-77
2022/07/09 03:37:56;;;;;;;;;;;;;;;19.23;50.30;100870.00;5346206;32;34376;-79
2022/07/09 03:40:58;;;;;;;;;;;;;;;19.59;49.41;100872.00;5333185;32;35352;-78
2022/07/09 03:44:00;;;;;;;;;;;;;;;19.33;49.54;100876.44;5331040;32;35163;-80
2022/07/09 03:47:02;;;;;;;;;;;;;;;19.99;47.91;100881.59;5359398;32;34983;-79
2022/07/09 03:50:05;;;;;;;;;;;;;;;19.97;47.78;100867.53;5347843;32;34285;-79
2022/07/09 03:53:07;;;;;;;;;;;;;;;19.23;49.41;100867.34;5352634;32;36518;-78
2022/07/09 03:56:09;;;;;;;;;;;;;;;19.42;49.46;100881.13;5330592;32;35276;-78
2022/07/09 03:59:11;;;;;;;;;;;;;;;19.85;48.07;100871.06;5344553;32;34760;-79
2022/07/09 04:02:13;;;;;;;;;;;;;;;19.66;48.76;100868.81;5309735;32;35268;-78
2022/07/09 04:05:15;;;;;;;;;;;;;;;19.57;48.92;100879.22;5318185;32;34046;-78
2022/07/09 04:08:17;;;;;;;;;;;;;;;19.74;47.96;100871.78;5357525;32;34973;-78
2022/07/09 04:11:19;;;;;;;;;;;;;;;19.66;48.49;100879.47;5338117;32;45534;-80
2022/07/09 04:14:21;;;;;;;;;;;;;;;19.53;49.19;100877.72;5346107;32;34436;-79
2022/07/09 04:17:23;;;;;;;;;;;;;;;19.97;48.06;100878.19;5326497;32;34858;-77
2022/07/09 04:20:25;;;;;;;;;;;;;;;19.14;50.02;100879.47;5329348;32;34752;-79
2022/07/09 04:23:27;;;;;;;;;;;;;;;19.21;49.87;100873.63;5333989;32;34894;-77
2022/07/09 04:26:29;;;;;;;;;;;;;;;19.69;48.68;100883.72;5327114;32;36809;-78
2022/07/09 04:29:31;;;;;;;;;;;;;;;19.13;50.18;100878.63;5347592;32;35669;-77
2022/07/09 04:32:33;;;;;;;;;;;;;;;19.71;48.96;100876.50;5332408;32;35275;-79
2022/07/09 04:35:35;;;;;;;;;;;;;;;19.43;49.87;100870.34;5347687;32;35122;-79
2022/07/09 04:38:37;;;;;;;;;;;;;;;20.10;47.87;100872.00;5332843;32;34195;-80
2022/07/09 04:41:39;;;;;;;;;;;;;;;18.64;51.72;100881.81;5340676;32;33977;-77
2022/07/09 04:44:42;;;;;;;;;;;;;;;19.90;48.52;100874.25;5333342;32;35592;-79
2022/07/09 04:47:44;;;;;;;;;;;;;;;19.35;50.01;100875.34;5330627;32;34405;-78
2022/07/09 04:50:46;;;;;;;;;;;;;;;18.73;51.68;100877.72;5347784;32;36460;-77
2022/07/09 04:53:48;;;;;;;;;;;;;;;19.01;51.01;100884.78;5329630;32;35045;-78
2022/07/09 04:56:50;;;;;;;;;;;;;;;19.95;48.54;100880.09;5346462;32;44960;-79
2022/07/09 04:59:52;;;;;;;;;;;;;;;20.38;47.72;100873.53;5329913;32;34811;-78
2022/07/09 05:02:54;;;;;;;;;;;;;;;21.46;45.06;100869.97;5306135;32;34846;-80
2022/07/09 05:05:56;;;;;;;;;;;;;;;22.36;42.48;100866.38;5335667;32;35442;-80
2022/07/09 05:08:58;;;;;;;;;;;;;;;21.86;42.97;100863.19;5340372;32;34900;-77
2022/07/09 05:12:00;;;;;;;;;;;;;;;21.95;43.24;100866.97;5352030;32;34750;-79
2022/07/09 05:15:02;;;;;;;;;;;;;;;22.53;41.47;100873.03;5330715;32;34863;-78
2022/07/09 05:18:04;;;;;;;;;;;;;;;23.51;39.33;100872.91;5352434;32;35991;-80
2022/07/09 05:21:06;;;;;;;;;;;;;;;23.15;40.47;100880.41;5329901;32;35276;-76
2022/07/09 05:24:09;;;;;;;;;;;;;;;22.97;40.70;100871.22;5329444;32;34962;-80
2022/07/09 05:27:11;;;;;;;;;;;;;;;22.05;42.55;100875.13;5323113;32;35039;-79
2022/07/09 05:30:14;;;;;;;;;;;;;;;21.55;43.90;100880.78;5328353;32;34170;-79
2022/07/09 05:33:21;;;;;;;;;;;;;;;21.88;42.99;100869.28;5347555;32;44705;-77
2022/07/09 05:36:23;;;;;;;;;;;;;;;22.49;41.85;100871.59;5317058;32;35009;-79
2022/07/09 05:39:25;;;;;;;;;;;;;;;22.49;41.70;100876.09;5332321;32;34446;-80
2022/07/09 05:42:26;;;;;;;;;;;;;;;23.86;38.93;100872.56;5330582;32;35748;-81
2022/07/09 05:45:28;;;;;;;;;;;;;;;24.02;38.76;100877.44;5338068;32;35402;-80
2022/07/09 05:48:30;;;;;;;;;;;;;;;22.70;41.15;100872.50;5326249;32;34430;-78
2022/07/09 05:51:33;;;;;;;;;;;;;;;24.16;38.58;100865.50;5326871;32;35239;-78
2022/07/09 05:54:36;;;;;;;;;;;;;;;24.73;36.94;100864.81;5345167;32;35083;-80
2022/07/09 05:57:38;;;;;;;;;;;;;;;23.91;38.48;100864.13;5330709;32;34460;-78
2022/07/09 06:00:40;;;;;;;;;;;;;;;24.49;37.47;100862.50;5331886;32;35430;-80
2022/07/09 06:03:42;;;;;;;;;;;;;;;25.69;35.04;100857.66;5318376;32;35405;-78
2022/07/09 06:06:45;;;;;;;;;;;;;;;25.82;35.10;100855.53;5334122;32;34543;-79
2022/07/09 06:09:47;;;;;;;;;;;;;;;25.23;35.43;100856.63;5354604;32;34816;-78
2022/07/09 06:12:49;;;;;;;;;;;;;;;24.54;36.68;100862.94;5331498;32;43398;-80
2022/07/09 06:15:51;;;;;;;;;;;;;;;25.01;36.12;100863.13;5344273;32;35388;-78
2022/07/09 06:18:53;;;;;;;;;;;;;;;24.93;35.75;100863.00;5326106;32;34777;-80
2022/07/09 06:21:56;;;;;;;;;;;;;;;25.58;34.85;100856.00;5325166;32;35554;-78
2022/07/09 06:24:58;;;;;;;;;;;;;;;26.24;33.63;100856.91;5328528;32;34864;-79
2022/07/09 06:28:00;;;;;;;;;;;;;;;26.66;33.21;100863.50;5335416;32;35017;-79
2022/07/09 06:31:03;;;;;;;;;;;;;;;25.28;35.37;100861.59;5340132;32;35388;-78
2022/07/09 06:34:04;;;;;;;;;;;;;;;24.89;36.25;100863.41;5328402;32;35492;-80
2022/07/09 06:37:07;;;;;;;;;;;;;;;25.99;33.89;100862.00;5347878;32;34936;-81
2022/07/09 06:40:08;;;;;;;;;;;;;;;24.50;36.67;100871.41;5326854;32;35310;-79
2022/07/09 06:43:12;;;;;;;;;;;;;;;26.16;34.06;100857.69;5345772;32;33818;-81
2022/07/09 06:46:14;;;;;;;;;;;;;;;26.42;33.42;100856.00;5331725;32;34651;-78
2022/07/09 06:49:16;;;;;;;;;;;;;;;26.87;32.25;100867.75;5332347;32;34862;-81
2022/07/09 06:52:18;;;;;;;;;;;;;;;26.09;34.12;100860.13;5343661;32;35074;-79
2022/07/09 06:55:21;;;;;;;;;;;;;;;25.70;34.19;100854.00;5326724;32;35055;-78
2022/07/09 06:58:23;;;;;;;;;;;;;;;26.33;33.15;100856.84;5334694;32;35690;-79
2022/07/09 07:01:25;;;;;;;;;;;;;;;25.67;34.39;100865.03;5309303;32;34233;-80
2022/07/09 07:04:27;;;;;;;;;;;;;;;25.82;34.34;100852.00;5337235;32;35083;-80
2022/07/09 07:07:29;;;;;;;;;;;;;;;25.98;34.00;100860.31;5329695;32;35484;-80
2022/07/09 07:10:31;;;;;;;;;;;;;;;26.49;33.59;100855.41;5346855;32;35088;-78
2022/07/09 07:13:32;;;;;;;;;;;;;;;26.27;34.00;100859.31;5331837;32;38248;-79
2022/07/09 07:16:34;;;;;;;;;;;;;;;27.07;32.05;100857.69;5327806;32;35311;-80
2022/07/09 07:19:36;;;;;;;;;;;;;;;27.19;31.79;100857.28;5340543;32;35492;-81
2022/07/09 07:22:38;;;;;;;;;;;;;;;27.21;32.09;100855.28;5327325;32;34891;-78
2022/07/09 07:25:40;;;;;;;;;;;;;;;27.09;32.30;100856.53;5343521;32;34249;-79
2022/07/09 07:28:42;;;;;;;;;;;;;;;27.89;30.40;100849.19;5327489;32;35044;-78
2022/07/09 07:31:44;;;;;;;;;;;;;;;27.78;30.91;100858.41;5327327;32;34778;-80
2022/07/09 07:34:47;;;;;;;;;;;;;;;27.33;31.30;100857.72;5344097;32;34355;-78
2022/07/09 07:37:48;;;;;;;;;;;;;;;26.34;33.44;100863.09;5313315;32;34500;-80
2022/07/09 07:40:50;;;;;;;;;;;;;;;26.89;32.38;100849.56;5345322;32;36276;-80
2022/07/09 07:43:53;;;;;;;;;;;;;;;28.25;29.85;100846.28;5328897;32;34411;-79
2022/07/09 07:46:54;;;;;;;;;;;;;;;29.52;27.96;100851.41;5337454;32;34811;-79
2022/07/09 07:49:57;;;;;;;;;;;;;;;26.60;32.41;100856.03;5326666;32;36423;-78
2022/07/09 07:52:59;;;;;;;;;;;;;;;28.67;29.53;100853.53;5327559;32;34731;-79
2022/07/09 07:56:02;;;;;;;;;;;;;;;29.41;28.01;100839.88;5320302;32;34520;-79
2022/07/09 07:59:04;;;;;;;;;;;;;;;29.31;28.38;100844.66;5322141;32;35101;-78
2022/07/09 08:02:07;;;;;;;;;;;;;;;28.16;29.89;100841.88;5319751;32;35302;-80
2022/07/09 08:05:09;;;;;;;;;;;;;;;27.65;30.85;100846.31;5332699;32;34907;-77
2022/07/09 08:08:11;;;;;;;;;;;;;;;28.42;29.16;100845.38;5340636;32;34456;-79
2022/07/09 08:11:14;;;;;;;;;;;;;;;27.97;29.98;100846.53;5331265;32;35774;-78
2022/07/09 08:14:16;;;;;;;;;;;;;;;30.54;26.52;100839.69;5324422;32;34619;-80
2022/07/09 08:17:18;;;;;;;;;;;;;;;30.85;26.04;100827.97;5354356;32;34990;-80
2022/07/09 08:20:20;;;;;;;;;;;;;;;29.69;27.60;100823.28;5325780;32;44559;-79
2022/07/09 08:23:22;;;;;;;;;;;;;;;27.99;29.93;100833.69;5331601;32;36384;-80
2022/07/09 08:26:24;;;;;;;;;;;;;;;30.13;26.84;100818.22;5330897;32;34747;-78
2022/07/09 08:29:26;;;;;;;;;;;;;;;31.35;24.97;100815.69;5342364;32;35155;-79
2022/07/09 08:32:29;;;;;;;;;;;;;;;30.39;26.05;100815.19;5332175;32;35905;-76
2022/07/09 08:35:31;;;;;;;;;;;;;;;30.42;26.49;100808.59;5328605;32;34463;-78
2022/07/09 08:38:33;;;;;;;;;;;;;;;29.75;26.82;100816.31;5346204;32;35299;-78
2022/07/09 08:41:35;;;;;;;;;;;;;;;29.13;27.89;100801.53;5331307;32;34621;-80
2022/07/09 08:44:38;;;;;;;;;;;;;;;31.40;24.85;100811.41;5344259;32;34368;-79
2022/07/09 08:47:40;;;;;;;;;;;;;;;30.40;25.82;100802.47;5325715;32;34865;-79
2022/07/09 08:50:42;;;;;;;;;;;;;;;30.34;26.20;100800.50;5330696;32;34166;-79
2022/07/09 08:53:46;;;;;;;;;;;;;;;30.72;25.26;100794.16;5316601;32;36729;-79
2022/07/09 08:56:49;;;;;;;;;;;;;;;30.00;25.88;100804.34;5330650;32;34228;-78
2022/07/09 08:59:51;;;;;;;;;;;;;;;30.84;25.81;100799.16;5344053;32;45500;-80
2022/07/09 09:02:53;;;;;;;;;;;;;;;30.12;26.27;100786.72;5306257;32;35400;-79
2022/07/09 09:06:08;;;;;;;;;;;;;;;31.51;24.31;100785.66;5346710;32;35087;-80
2022/07/09 09:09:19;;;;;;;;;;;;;;;32.67;22.84;100784.81;5339229;32;34941;-81
2022/07/09 09:12:26;;;;;;;;;;;;;;;32.91;22.32;100785.47;5342084;32;44638;-80
2022/07/09 09:15:28;;;;;;;;;;;;;;;31.15;24.35;100785.47;5331187;32;35690;-79
2022/07/09 09:18:30;;;;;;;;;;;;;;;31.93;23.70;100790.44;5320631;32;36332;-80
2022/07/09 09:21:32;;;;;;;;;;;;;;;31.47;23.87;100784.34;5346406;32;35262;-79
2022/07/09 09:24:34;;;;;;;;;;;;;;;30.93;24.46;100773.66;5329921;32;32842;-79
2022/07/09 09:27:36;;;;;;;;;;;;;;;32.03;23.05;100773.84;5345189;32;34294;-78
2022/07/09 09:30:43;;;;;;;;;;;;;;;31.24;23.80;100763.53;5333538;32;34274;-79
2022/07/09 09:33:45;;;;;;;;;;;;;;;30.70;24.61;100769.06;5327268;32;34921;-79
2022/07/09 09:36:47;;;;;;;;;;;;;;;31.06;23.91;100771.16;5346154;32;34175;-79
2022/07/09 09:39:50;;;;;;;;;;;;;;;30.58;24.42;100767.78;5330201;32;47519;-79
2022/07/09 09:42:56;;;;;;;;;;;;;;;30.28;25.12;100763.25;5330332;32;36300;-80
2022/07/09 09:45:59;;;;;;;;;;;;;;;31.85;23.14;100759.81;5330558;32;35375;-80
2022/07/09 09:49:05;;;;;;;;;;;;;;;30.28;24.58;100760.56;5342905;32;34818;-80
2022/07/09 09:52:08;;;;;;;;;;;;;;;28.75;26.88;100753.47;5333340;32;35248;-81
2022/07/09 09:55:10;;;;;;;;;;;;;;;31.22;23.27;100751.12;5328950;32;34671;-81
2022/07/09 09:58:12;;;;;;;;;;;;;;;31.42;23.15;100746.84;5343452;32;34874;-79
2022/07/09 10:01:14;;;;;;;;;;;;;;;31.66;22.47;100745.75;5314777;32;35207;-79
2022/07/09 10:04:16;;;;;;;;;;;;;;;33.16;20.71;100743.16;5339795;32;34428;-78
2022/07/09 10:07:19;;;;;;;;;;;;;;;33.18;20.35;100738.37;5316372;32;35014;-80
2022/07/09 10:10:21;;;;;;;;;;;;;;;33.98;19.55;100733.38;5359731;32;34899;-78
2022/07/09 10:13:23;;;;;;;;;;;;;;;33.27;20.26;100736.31;5349912;32;36145;-79
2022/07/09 10:16:35;;;;;;;;;;;;;;;33.09;20.66;100725.94;5333518;32;34972;-80
2022/07/09 10:19:38;;;;;;;;;;;;;;;32.39;21.08;100738.47;5343184;32;34332;-80
2022/07/09 10:22:44;;;;;;;;;;;;;;;31.43;21.95;100737.72;5330449;32;34817;-79
2022/07/09 10:25:46;;;;;;;;;;;;;;;32.07;21.57;100726.19;5347121;32;34215;-78
2022/07/09 10:28:49;;;;;;;;;;;;;;;32.64;20.54;100729.94;5327094;32;44542;-78
2022/07/09 10:31:51;;;;;;;;;;;;;;;30.56;23.03;100715.59;5333446;32;34690;-79
2022/07/09 10:35:00;;;;;;;;;;;;;;;32.08;21.67;100722.47;5343822;32;35552;-80
2022/07/09 10:38:02;;;;;;;;;;;;;;;32.02;21.59;100715.91;5326739;32;35014;-78
2022/07/09 10:41:04;;;;;;;;;;;;;;;30.66;22.90;100715.34;5347005;32;34494;-80
2022/07/09 10:44:06;;;;;;;;;;;;;;;32.01;21.27;100708.78;5328916;32;34876;-77
2022/07/09 10:47:08;;;;;;;;;;;;;;;32.60;20.69;100702.28;5346220;32;34699;-78
2022/07/09 10:50:11;;;;;;;;;;;;;;;32.06;20.95;100702.75;5317721;32;36668;-79
2022/07/09 10:53:13;;;;;;;;;;;;;;;33.63;19.35;100698.00;5326268;32;35387;-80
2022/07/09 10:56:19;;;;;;;;;;;;;;;33.36;19.50;100691.53;5346968;32;34907;-80
2022/07/09 10:59:21;;;;;;;;;;;;;;;32.83;20.18;100697.44;5334847;32;45595;-78
2022/07/09 11:02:23;;;;;;;;;;;;;;;32.79;19.70;100698.06;5310120;32;34361;-81
2022/07/09 11:05:26;;;;;;;;;;;;;;;33.71;18.50;100681.47;5331271;32;35130;-79
2022/07/09 11:08:30;;;;;;;;;;;;;;;32.78;19.35;100682.75;5331729;32;35554;-81
2022/07/09 11:11:32;;;;;;;;;;;;;;;32.46;19.74;100687.72;5316683;32;35111;-81
2022/07/09 11:14:42;;;;;;;;;;;;;;;31.81;20.42;100688.66;5323104;32;35185;-79
2022/07/09 11:17:44;;;;;;;;;;;;;;;31.30;21.40;100690.47;5340141;32;33800;-80
2022/07/09 11:20:46;;;;;;;;;;;;;;;31.05;20.89;100682.62;5329082;32;35340;-79
2022/07/09 11:23:49;;;;;;;;;;;;;;;33.36;18.57;100673.31;5360971;32;36380;-79
2022/07/09 11:26:51;;;;;;;;;;;;;;;32.30;19.45;100677.06;5339922;32;35125;-81
2022/07/09 11:29:53;;;;;;;;;;;;;;;32.73;19.23;100658.03;5326233;32;35266;-78
2022/07/09 11:32:55;;;;;;;;;;;;;;;33.71;18.36;100673.28;5332307;32;34311;-79
2022/07/09 11:35:57;;;;;;;;;;;;;;;34.85;16.82;100645.97;5316231;32;35515;-80
2022/07/09 11:38:59;;;;;;;;;;;;;;;33.82;17.13;100650.87;5345467;32;34558;-79
2022/07/09 11:42:01;;;;;;;;;;;;;;;33.35;17.63;100649.81;5330628;32;35056;-80
2022/07/09 11:45:04;;;;;;;;;;;;;;;34.96;16.01;100628.94;5345775;32;34921;-79
2022/07/09 11:48:09;;;;;;;;;;;;;;;34.05;16.72;100631.44;5326457;32;35361;-78
2022/07/09 11:51:12;;;;;;;;;;;;;;;31.78;18.95;100641.00;5335991;32;34937;-80
2022/07/09 11:54:13;;;;;;;;;;;;;;;32.83;18.35;100628.56;5340352;32;34693;-79
2022/07/09 11:57:19;;;;;;;;;;;;;;;34.46;16.38;100614.94;5331473;32;34902;-80
2022/07/09 12:00:25;;;;;;;;;;;;;;;35.03;15.93;100620.72;5335838;32;44560;-83
2022/07/09 12:03:29;;;;;;;;;;;;;;;34.60;16.29;100615.75;5320322;32;34224;-79
2022/07/09 12:06:32;;;;;;;;;;;;;;;32.29;18.82;100613.69;5345857;32;34685;-81
2022/07/09 12:09:34;;;;;;;;;;;;;;;32.29;18.71;100612.84;5321654;32;34780;-79
2022/07/09 12:12:36;;;;;;;;;;;;;;;31.55;19.66;100604.94;5332719;32;35013;-82
2022/07/09 12:15:38;;;;;;;;;;;;;;;31.05;19.89;100614.75;5341664;32;34703;-81
2022/07/09 12:18:40;;;;;;;;;;;;;;;30.71;20.65;100599.84;5328872;32;34911;-80
2022/07/09 12:21:42;;;;;;;;;;;;;;;29.37;22.20;100599.47;5349321;32;34335;-80
2022/07/09 12:24:44;;;;;;;;;;;;;;;29.41;22.29;100601.62;5330070;32;36556;-79
2022/07/09 12:27:47;;;;;;;;;;;;;;;28.85;22.41;100595.41;5344211;32;34310;-80
2022/07/09 12:30:49;;;;;;;;;;;;;;;28.40;23.34;100590.56;5316826;32;44764;-81
2022/07/09 12:33:51;;;;;;;;;;;;;;;28.41;23.84;100575.22;5318411;32;36177;-81
2022/07/09 12:36:54;;;;;;;;;;;;;;;28.49;23.58;100573.34;5337488;32;34810;-81
2022/07/09 12:40:01;;;;;;;;;;;;;;;29.64;22.07;100563.78;5318228;32;34279;-79
2022/07/09 12:43:03;;;;;;;;;;;;;;;29.44;22.37;100573.38;5344229;32;35045;-81
2022/07/09 12:46:05;;;;;;;;;;;;;;;28.74;23.40;100576.00;5331928;32;34732;-80
2022/07/09 12:49:07;;;;;;;;;;;;;;;27.85;24.68;100558.81;5345277;32;32932;-80
2022/07/09 12:52:09;;;;;;;;;;;;;;;28.32;24.40;100555.44;5332626;32;34821;-79
2022/07/09 12:55:11;;;;;;;;;;;;;;;28.67;23.83;100558.78;5333364;32;34813;-79
2022/07/09 12:58:13;;;;;;;;;;;;;;;28.18;24.68;100566.91;5333932;32;34428;-82
2022/07/09 13:01:15;;;;;;;;;;;;;;;27.98;24.91;100561.00;5331679;32;34182;-78
2022/07/09 13:04:17;;;;;;;;;;;;;;;28.67;23.97;100558.78;5341399;32;33638;-80
2022/07/09 13:07:19;;;;;;;;;;;;;;;27.77;25.15;100558.81;5316600;32;42539;-79
2022/07/09 13:10:23;;;;;;;;;;;;;;;27.73;24.96;100557.44;5362275;32;34836;-80
2022/07/09 13:13:24;;;;;;;;;;;;;;;28.73;24.12;100549.97;5321654;32;34879;-82
2022/07/09 13:16:29;;;;;;;;;;;;;;;28.20;24.98;100551.38;5328950;32;34499;-80
2022/07/09 13:19:31;;;;;;;;;;;;;;;28.65;24.40;100556.22;5331939;32;34402;-78
2022/07/09 13:22:33;;;;;;;;;;;;;;;27.89;24.95;100549.37;5318011;32;35771;-80
2022/07/09 13:25:36;;;;;;;;;;;;;;;28.15;24.86;100532.16;5346422;32;34880;-78
2022/07/09 13:28:38;;;;;;;;;;;;;;;27.98;24.80;100531.31;5333379;32;34381;-79
2022/07/09 13:31:40;;;;;;;;;;;;;;;27.85;25.05;100541.75;5341476;32;36543;-79
2022/07/09 13:34:42;;;;;;;;;;;;;;;28.17;24.55;100536.34;5332580;32;34246;-81
2022/07/09 13:37:44;;;;;;;;;;;;;;;27.07;25.61;100544.78;5329892;32;34501;-79
2022/07/09 13:40:46;;;;;;;;;;;;;;;27.52;24.83;100530.91;5344424;32;34937;-79
2022/07/09 13:43:48;;;;;;;;;;;;;;;27.03;25.74;100532.56;5332245;32;34816;-78
2022/07/09 13:46:50;;;;;;;;;;;;;;;27.19;25.51;100521.87;5345401;32;44627;-82
2022/07/09 13:49:52;;;;;;;;;;;;;;;28.44;24.19;100527.06;5331613;32;34911;-82
2022/07/09 13:52:54;;;;;;;;;;;;;;;28.01;24.93;100501.22;5342637;32;34171;-79
2022/07/09 13:55:56;;;;;;;;;;;;;;;27.78;24.82;100518.13;5334113;32;34911;-79
2022/07/09 13:58:58;;;;;;;;;;;;;;;28.75;23.56;100512.78;5329842;32;34967;-81
2022/07/09 14:02:03;;;;;;;;;;;;;;;27.65;24.89;100503.41;5322275;32;34997;-80
2022/07/09 14:05:05;;;;;;;;;;;;;;;28.29;24.22;100512.53;5329293;32;34424;-78
2022/07/09 14:08:07;;;;;;;;;;;;;;;27.84;24.75;100497.72;5353716;32;34310;-84
2022/07/09 14:11:09;;;;;;;;;;;;;;;27.95;24.61;100510.88;5346385;32;34877;-80
2022/07/09 14:14:11;;;;;;;;;;;;;;;28.44;24.05;100500.00;5342035;32;35201;-78
2022/07/09 14:17:13;;;;;;;;;;;;;;;27.33;25.42;100496.97;5334934;32;34006;-78
2022/07/09 14:20:15;;;;;;;;;;;;;;;27.93;24.83;100488.59;5329164;32;36612;-79
2022/07/09 14:23:17;;;;;;;;;;;;;;;27.99;24.79;100496.00;5346935;32;35050;-80
2022/07/09 14:26:19;;;;;;;;;;;;;;;28.20;24.44;100490.06;5330419;32;44570;-81
2022/07/09 14:29:21;;;;;;;;;;;;;;;27.92;24.98;100494.16;5345708;32;34514;-81
2022/07/09 14:32:24;;;;;;;;;;;;;;;27.60;25.05;100501.22;5329925;32;35637;-80
2022/07/09 14:35:26;;;;;;;;;;;;;;;27.69;24.63;100483.19;5334956;32;35251;-80
2022/07/09 14:38:28;;;;;;;;;;;;;;;27.70;24.78;100479.50;5335188;32;34781;-78
2022/07/09 14:41:31;;;;;;;;;;;;;;;28.41;23.69;100481.47;5332957;32;34438;-80
2022/07/09 14:44:33;;;;;;;;;;;;;;;27.48;24.65;100491.75;5344466;32;35043;-79
2022/07/09 14:47:36;;;;;;;;;;;;;;;27.01;24.90;100497.69;5331748;32;36678;-78
2022/07/09 14:50:38;;;;;;;;;;;;;;;27.23;24.58;100486.31;5344938;32;34278;-79
2022/07/09 14:53:40;;;;;;;;;;;;;;;27.51;24.11;100483.31;5329081;32;34258;-81
2022/07/09 14:56:44;;;;;;;;;;;;;;;27.34;24.59;100482.44;5335483;32;34164;-79
2022/07/09 14:59:47;;;;;;;;;;;;;;;27.77;23.92;100480.50;5339742;32;34740;-83
2022/07/09 15:02:48;;;;;;;;;;;;;;;27.65;23.93;100484.50;5305167;32;36703;-79
2022/07/09 15:05:51;;;;;;;;;;;;;;;27.56;24.34;100472.00;5344849;32;34305;-81
2022/07/09 15:08:53;;;;;;;;;;;;;;;27.47;24.24;100480.09;5331729;32;34867;-79
2022/07/09 15:11:55;;;;;;;;;;;;;;;28.32;23.02;100469.81;5350498;32;36382;-79
2022/07/09 15:14:57;;;;;;;;;;;;;;;27.68;23.24;100462.56;5344607;32;35408;-79
2022/07/09 15:17:59;;;;;;;;;;;;;;;27.38;23.87;100467.63;5329478;32;34405;-80
2022/07/09 15:21:01;;;;;;;;;;;;;;;27.86;23.35;100468.66;5335454;32;34781;-80
2022/07/09 15:24:04;;;;;;;;;;;;;;;27.62;23.36;100455.13;5329557;32;34921;-81
2022/07/09 15:27:07;;;;;;;;;;;;;;;27.17;23.83;100472.62;5329554;32;35796;-80
2022/07/09 15:30:09;;;;;;;;;;;;;;;27.03;23.63;100466.00;5334250;32;34144;-79
2022/07/09 15:33:15;;;;;;;;;;;;;;;27.23;23.44;100455.78;5348943;32;35115;-79
2022/07/09 15:36:17;;;;;;;;;;;;;;;27.22;23.36;100456.78;5332746;32;34127;-80